sensor_id;sensor_type;location;lat;lon;timestamp;temperature;humidity
67101;DHT22;54019;61.746;16.106;2023-04-06T00:00:49;20.30;24.30
67101;DHT22;54019;61.746;16.106;2023-04-06T00:03:15;20.20;25.00
67101;DHT22;54019;61.746;16.106;2023-04-06T00:05:43;20.20;24.40
67101;DHT22;54019;61.746;16.106;2023-04-06T00:08:08;20.20;24.40
67101;DHT22;54019;61.746;16.106;2023-04-06T00:10:34;20.20;24.40
67101;DHT22;54019;61.746;16.106;2023-04-06T00:13:00;20.20;24.30
67101;DHT22;54019;61.746;16.106;2023-04-06T00:15:26;20.10;24.30
67101;DHT22;54019;61.746;16.106;2023-04-06T00:17:52;20.20;24.20
67101;DHT22;54019;61.746;16.106;2023-04-06T00:20:18;20.10;24.30
67101;DHT22;54019;61.746;16.106;2023-04-06T00:22:45;20.10;24.30
67101;DHT22;54019;61.746;16.106;2023-04-06T00:25:11;20.20;24.20
67101;DHT22;54019;61.746;16.106;2023-04-06T00:27:37;20.10;24.30
67101;DHT22;54019;61.746;16.106;2023-04-06T00:30:03;20.10;24.20
67101;DHT22;54019;61.746;16.106;2023-04-06T00:32:29;20.00;24.10
67101;DHT22;54019;61.746;16.106;2023-04-06T00:34:55;20.00;24.10
67101;DHT22;54019;61.746;16.106;2023-04-06T00:37:20;20.00;24.10
67101;DHT22;54019;61.746;16.106;2023-04-06T00:39:48;20.00;24.10
67101;DHT22;54019;61.746;16.106;2023-04-06T00:42:14;20.00;24.10
67101;DHT22;54019;61.746;16.106;2023-04-06T00:44:40;20.00;24.20
67101;DHT22;54019;61.746;16.106;2023-04-06T00:47:05;20.00;24.20
67101;DHT22;54019;61.746;16.106;2023-04-06T00:49:32;19.90;24.20
67101;DHT22;54019;61.746;16.106;2023-04-06T00:51:57;19.90;24.20
67101;DHT22;54019;61.746;16.106;2023-04-06T00:54:23;19.90;24.00
67101;DHT22;54019;61.746;16.106;2023-04-06T00:56:50;19.90;24.20
67101;DHT22;54019;61.746;16.106;2023-04-06T00:59:16;19.90;24.30
67101;DHT22;54019;61.746;16.106;2023-04-06T01:01:42;19.90;24.20
67101;DHT22;54019;61.746;16.106;2023-04-06T01:04:08;19.90;24.20
67101;DHT22;54019;61.746;16.106;2023-04-06T01:06:34;19.90;24.40
67101;DHT22;54019;61.746;16.106;2023-04-06T01:09:00;19.90;24.30
67101;DHT22;54019;61.746;16.106;2023-04-06T01:11:26;19.90;24.20
67101;DHT22;54019;61.746;16.106;2023-04-06T01:13:53;20.00;24.20
67101;DHT22;54019;61.746;16.106;2023-04-06T01:16:19;20.00;24.00
67101;DHT22;54019;61.746;16.106;2023-04-06T01:18:45;20.00;23.70
67101;DHT22;54019;61.746;16.106;2023-04-06T01:21:11;20.10;23.70
67101;DHT22;54019;61.746;16.106;2023-04-06T01:23:38;20.10;23.70
67101;DHT22;54019;61.746;16.106;2023-04-06T01:26:04;20.10;23.80
67101;DHT22;54019;61.746;16.106;2023-04-06T01:28:29;20.10;23.70
67101;DHT22;54019;61.746;16.106;2023-04-06T01:30:55;20.10;23.90
67101;DHT22;54019;61.746;16.106;2023-04-06T01:33:21;20.10;24.00
67101;DHT22;54019;61.746;16.106;2023-04-06T01:35:47;20.00;24.00
67101;DHT22;54019;61.746;16.106;2023-04-06T01:38:12;20.00;24.10
67101;DHT22;54019;61.746;16.106;2023-04-06T01:40:40;20.00;24.10
67101;DHT22;54019;61.746;16.106;2023-04-06T01:43:05;20.00;24.10
67101;DHT22;54019;61.746;16.106;2023-04-06T01:45:31;20.00;24.00
67101;DHT22;54019;61.746;16.106;2023-04-06T01:47:57;20.00;24.00
67101;DHT22;54019;61.746;16.106;2023-04-06T01:50:23;20.00;24.00
67101;DHT22;54019;61.746;16.106;2023-04-06T01:52:48;20.00;24.10
67101;DHT22;54019;61.746;16.106;2023-04-06T01:55:14;20.00;24.00
67101;DHT22;54019;61.746;16.106;2023-04-06T01:57:41;19.90;24.00
67101;DHT22;54019;61.746;16.106;2023-04-06T02:00:08;19.90;24.10
67101;DHT22;54019;61.746;16.106;2023-04-06T02:02:34;19.90;24.00
67101;DHT22;54019;61.746;16.106;2023-04-06T02:05:00;19.90;24.00
67101;DHT22;54019;61.746;16.106;2023-04-06T02:07:25;19.90;24.00
67101;DHT22;54019;61.746;16.106;2023-04-06T02:09:54;19.90;24.10
67101;DHT22;54019;61.746;16.106;2023-04-06T02:12:20;19.80;24.00
67101;DHT22;54019;61.746;16.106;2023-04-06T02:14:47;19.80;24.00
67101;DHT22;54019;61.746;16.106;2023-04-06T02:17:13;19.80;24.00
67101;DHT22;54019;61.746;16.106;2023-04-06T02:19:38;19.80;24.00
67101;DHT22;54019;61.746;16.106;2023-04-06T02:22:04;19.80;24.00
67101;DHT22;54019;61.746;16.106;2023-04-06T02:24:30;19.80;24.00
67101;DHT22;54019;61.746;16.106;2023-04-06T02:26:56;19.80;24.10
67101;DHT22;54019;61.746;16.106;2023-04-06T02:29:21;19.80;24.10
67101;DHT22;54019;61.746;16.106;2023-04-06T02:31:49;19.80;24.30
67101;DHT22;54019;61.746;16.106;2023-04-06T02:34:14;19.80;24.20
67101;DHT22;54019;61.746;16.106;2023-04-06T02:36:40;19.80;24.00
67101;DHT22;54019;61.746;16.106;2023-04-06T02:39:06;19.90;23.70
67101;DHT22;54019;61.746;16.106;2023-04-06T02:41:32;19.90;23.80
67101;DHT22;54019;61.746;16.106;2023-04-06T02:43:57;19.90;23.50
67101;DHT22;54019;61.746;16.106;2023-04-06T02:46:23;20.00;23.50
67101;DHT22;54019;61.746;16.106;2023-04-06T02:48:50;20.00;23.50
67101;DHT22;54019;61.746;16.106;2023-04-06T02:51:16;20.00;23.30
67101;DHT22;54019;61.746;16.106;2023-04-06T02:53:42;20.00;23.40
67101;DHT22;54019;61.746;16.106;2023-04-06T02:56:07;20.00;23.40
67101;DHT22;54019;61.746;16.106;2023-04-06T02:58:33;20.00;23.50
67101;DHT22;54019;61.746;16.106;2023-04-06T03:00:59;20.00;23.40
67101;DHT22;54019;61.746;16.106;2023-04-06T03:03:25;19.90;23.80
67101;DHT22;54019;61.746;16.106;2023-04-06T03:05:52;19.90;23.90
67101;DHT22;54019;61.746;16.106;2023-04-06T03:08:18;19.90;23.90
67101;DHT22;54019;61.746;16.106;2023-04-06T03:10:43;19.90;23.90
67101;DHT22;54019;61.746;16.106;2023-04-06T03:13:09;19.90;23.90
67101;DHT22;54019;61.746;16.106;2023-04-06T03:15:35;19.80;24.00
67101;DHT22;54019;61.746;16.106;2023-04-06T03:18:00;19.80;24.00
67101;DHT22;54019;61.746;16.106;2023-04-06T03:20:26;19.80;23.80
67101;DHT22;54019;61.746;16.106;2023-04-06T03:22:53;19.80;23.80
67101;DHT22;54019;61.746;16.106;2023-04-06T03:25:19;19.80;23.80
67101;DHT22;54019;61.746;16.106;2023-04-06T03:27:45;19.80;24.40
67101;DHT22;54019;61.746;16.106;2023-04-06T03:30:11;19.80;23.70
67101;DHT22;54019;61.746;16.106;2023-04-06T03:32:37;19.80;23.80
67101;DHT22;54019;61.746;16.106;2023-04-06T03:35:03;19.80;23.80
67101;DHT22;54019;61.746;16.106;2023-04-06T03:37:29;19.80;23.90
67101;DHT22;54019;61.746;16.106;2023-04-06T03:39:56;19.70;24.20
67101;DHT22;54019;61.746;16.106;2023-04-06T03:42:22;19.70;24.20
67101;DHT22;54019;61.746;16.106;2023-04-06T03:44:48;19.70;24.30
67101;DHT22;54019;61.746;16.106;2023-04-06T03:47:14;19.70;24.70
67101;DHT22;54019;61.746;16.106;2023-04-06T03:49:39;19.70;24.80
67101;DHT22;54019;61.746;16.106;2023-04-06T03:52:05;19.80;24.40
67101;DHT22;54019;61.746;16.106;2023-04-06T03:54:31;19.80;24.40
67101;DHT22;54019;61.746;16.106;2023-04-06T03:56:58;19.80;24.10
67101;DHT22;54019;61.746;16.106;2023-04-06T03:59:24;19.90;24.30
67101;DHT22;54019;61.746;16.106;2023-04-06T04:01:49;19.90;24.20
67101;DHT22;54019;61.746;16.106;2023-04-06T04:04:15;19.90;23.90
67101;DHT22;54019;61.746;16.106;2023-04-06T04:06:41;19.90;23.90
67101;DHT22;54019;61.746;16.106;2023-04-06T04:09:07;20.00;23.70
67101;DHT22;54019;61.746;16.106;2023-04-06T04:11:32;20.00;23.60
67101;DHT22;54019;61.746;16.106;2023-04-06T04:14:00;20.00;23.60
67101;DHT22;54019;61.746;16.106;2023-04-06T04:16:25;20.00;23.40
67101;DHT22;54019;61.746;16.106;2023-04-06T04:18:51;19.90;23.60
67101;DHT22;54019;61.746;16.106;2023-04-06T04:21:17;19.90;23.70
67101;DHT22;54019;61.746;16.106;2023-04-06T04:23:43;19.90;23.80
67101;DHT22;54019;61.746;16.106;2023-04-06T04:26:09;19.90;24.00
67101;DHT22;54019;61.746;16.106;2023-04-06T04:28:34;19.80;23.50
67101;DHT22;54019;61.746;16.106;2023-04-06T04:31:02;19.80;23.80
67101;DHT22;54019;61.746;16.106;2023-04-06T04:33:27;19.80;23.90
67101;DHT22;54019;61.746;16.106;2023-04-06T04:35:53;19.80;23.90
67101;DHT22;54019;61.746;16.106;2023-04-06T04:38:19;19.80;24.00
67101;DHT22;54019;61.746;16.106;2023-04-06T04:40:45;19.70;23.90
67101;DHT22;54019;61.746;16.106;2023-04-06T04:43:10;19.70;23.80
67101;DHT22;54019;61.746;16.106;2023-04-06T04:45:39;19.70;23.90
67101;DHT22;54019;61.746;16.106;2023-04-06T04:48:07;19.70;23.90
67101;DHT22;54019;61.746;16.106;2023-04-06T04:50:32;19.70;23.80
67101;DHT22;54019;61.746;16.106;2023-04-06T04:52:58;19.70;23.60
67101;DHT22;54019;61.746;16.106;2023-04-06T04:55:24;19.70;23.70
67101;DHT22;54019;61.746;16.106;2023-04-06T04:57:50;19.70;23.90
67101;DHT22;54019;61.746;16.106;2023-04-06T05:00:16;19.70;24.40
67101;DHT22;54019;61.746;16.106;2023-04-06T05:02:41;19.70;24.80
67101;DHT22;54019;61.746;16.106;2023-04-06T05:05:09;19.70;24.70
67101;DHT22;54019;61.746;16.106;2023-04-06T05:07:35;19.70;24.60
67101;DHT22;54019;61.746;16.106;2023-04-06T05:10:01;19.70;24.40
67101;DHT22;54019;61.746;16.106;2023-04-06T05:12:27;19.70;25.00
67101;DHT22;54019;61.746;16.106;2023-04-06T05:14:53;19.70;25.10
67101;DHT22;54019;61.746;16.106;2023-04-06T05:17:19;19.80;24.60
67101;DHT22;54019;61.746;16.106;2023-04-06T05:19:45;19.80;24.80
67101;DHT22;54019;61.746;16.106;2023-04-06T05:22:12;19.80;25.10
67101;DHT22;54019;61.746;16.106;2023-04-06T05:24:38;19.80;24.80
67101;DHT22;54019;61.746;16.106;2023-04-06T05:27:04;19.80;24.80
67101;DHT22;54019;61.746;16.106;2023-04-06T05:29:29;19.80;24.40
67101;DHT22;54019;61.746;16.106;2023-04-06T05:31:55;19.80;24.30
67101;DHT22;54019;61.746;16.106;2023-04-06T05:34:21;19.80;24.00
67101;DHT22;54019;61.746;16.106;2023-04-06T05:36:47;19.90;23.80
67101;DHT22;54019;61.746;16.106;2023-04-06T05:39:14;19.90;23.90
67101;DHT22;54019;61.746;16.106;2023-04-06T05:41:40;19.90;23.70
67101;DHT22;54019;61.746;16.106;2023-04-06T05:44:06;19.90;23.60
67101;DHT22;54019;61.746;16.106;2023-04-06T05:46:32;19.90;23.70
67101;DHT22;54019;61.746;16.106;2023-04-06T05:48:58;19.90;23.60
67101;DHT22;54019;61.746;16.106;2023-04-06T05:51:23;19.90;23.50
67101;DHT22;54019;61.746;16.106;2023-04-06T05:53:49;19.80;24.10
67101;DHT22;54019;61.746;16.106;2023-04-06T05:56:16;19.90;24.20
67101;DHT22;54019;61.746;16.106;2023-04-06T05:58:42;19.90;24.00
67101;DHT22;54019;61.746;16.106;2023-04-06T06:01:08;19.90;24.10
67101;DHT22;54019;61.746;16.106;2023-04-06T06:03:33;19.90;24.00
67101;DHT22;54019;61.746;16.106;2023-04-06T06:06:00;19.90;24.10
67101;DHT22;54019;61.746;16.106;2023-04-06T06:08:25;19.90;24.00
67101;DHT22;54019;61.746;16.106;2023-04-06T06:10:51;19.80;24.10
67101;DHT22;54019;61.746;16.106;2023-04-06T06:13:18;19.80;23.90
67101;DHT22;54019;61.746;16.106;2023-04-06T06:15:44;19.80;24.10
67101;DHT22;54019;61.746;16.106;2023-04-06T06:18:10;19.80;24.00
67101;DHT22;54019;61.746;16.106;2023-04-06T06:20:36;19.90;24.30
67101;DHT22;54019;61.746;16.106;2023-04-06T06:23:01;19.90;24.20
67101;DHT22;54019;61.746;16.106;2023-04-06T06:25:27;19.90;24.10
67101;DHT22;54019;61.746;16.106;2023-04-06T06:27:53;19.80;23.80
67101;DHT22;54019;61.746;16.106;2023-04-06T06:30:20;19.80;24.10
67101;DHT22;54019;61.746;16.106;2023-04-06T06:32:46;19.80;24.30
67101;DHT22;54019;61.746;16.106;2023-04-06T06:35:12;19.80;23.70
67101;DHT22;54019;61.746;16.106;2023-04-06T06:37:37;19.80;23.60
67101;DHT22;54019;61.746;16.106;2023-04-06T06:40:04;19.80;23.70
67101;DHT22;54019;61.746;16.106;2023-04-06T06:42:30;19.90;23.90
67101;DHT22;54019;61.746;16.106;2023-04-06T06:44:56;19.90;24.00
67101;DHT22;54019;61.746;16.106;2023-04-06T06:47:23;19.90;23.80
67101;DHT22;54019;61.746;16.106;2023-04-06T06:49:49;19.80;24.10
67101;DHT22;54019;61.746;16.106;2023-04-06T06:52:14;19.90;24.20
67101;DHT22;54019;61.746;16.106;2023-04-06T06:54:40;19.90;23.90
67101;DHT22;54019;61.746;16.106;2023-04-06T06:57:06;19.90;23.70
67101;DHT22;54019;61.746;16.106;2023-04-06T06:59:32;19.90;23.50
67101;DHT22;54019;61.746;16.106;2023-04-06T07:01:57;19.90;23.30
67101;DHT22;54019;61.746;16.106;2023-04-06T07:04:25;20.00;23.20
67101;DHT22;54019;61.746;16.106;2023-04-06T07:06:50;20.00;23.10
67101;DHT22;54019;61.746;16.106;2023-04-06T07:09:16;20.00;23.10
67101;DHT22;54019;61.746;16.106;2023-04-06T07:11:42;20.00;23.00
67101;DHT22;54019;61.746;16.106;2023-04-06T07:14:07;19.90;23.00
67101;DHT22;54019;61.746;16.106;2023-04-06T07:16:33;19.90;22.90
67101;DHT22;54019;61.746;16.106;2023-04-06T07:18:59;19.90;23.00
67101;DHT22;54019;61.746;16.106;2023-04-06T07:21:26;19.90;23.00
67101;DHT22;54019;61.746;16.106;2023-04-06T07:23:52;19.90;23.00
67101;DHT22;54019;61.746;16.106;2023-04-06T07:26:18;19.90;23.00
67101;DHT22;54019;61.746;16.106;2023-04-06T07:28:43;19.90;22.90
67101;DHT22;54019;61.746;16.106;2023-04-06T07:31:09;19.90;22.90
67101;DHT22;54019;61.746;16.106;2023-04-06T07:33:35;19.90;22.90
67101;DHT22;54019;61.746;16.106;2023-04-06T07:36:01;19.90;22.90
67101;DHT22;54019;61.746;16.106;2023-04-06T07:38:28;19.90;22.90
67101;DHT22;54019;61.746;16.106;2023-04-06T07:40:54;19.90;23.00
67101;DHT22;54019;61.746;16.106;2023-04-06T07:43:19;19.80;22.90
67101;DHT22;54019;61.746;16.106;2023-04-06T07:45:45;19.80;23.10
67101;DHT22;54019;61.746;16.106;2023-04-06T07:48:11;19.80;23.00
67101;DHT22;54019;61.746;16.106;2023-04-06T07:50:37;19.80;23.00
67101;DHT22;54019;61.746;16.106;2023-04-06T07:53:02;19.80;23.10
67101;DHT22;54019;61.746;16.106;2023-04-06T07:55:30;19.70;23.00
67101;DHT22;54019;61.746;16.106;2023-04-06T07:57:55;19.80;23.00
67101;DHT22;54019;61.746;16.106;2023-04-06T08:00:22;19.80;23.10
67101;DHT22;54019;61.746;16.106;2023-04-06T08:02:47;19.70;23.10
67101;DHT22;54019;61.746;16.106;2023-04-06T08:05:13;19.70;23.10
67101;DHT22;54019;61.746;16.106;2023-04-06T08:07:39;19.70;23.00
67101;DHT22;54019;61.746;16.106;2023-04-06T08:10:05;19.70;23.10
67101;DHT22;54019;61.746;16.106;2023-04-06T08:12:34;19.70;23.10
67101;DHT22;54019;61.746;16.106;2023-04-06T08:15:00;19.70;23.00
67101;DHT22;54019;61.746;16.106;2023-04-06T08:17:25;19.70;23.00
67101;DHT22;54019;61.746;16.106;2023-04-06T08:19:51;19.70;23.00
67101;DHT22;54019;61.746;16.106;2023-04-06T08:22:17;19.70;23.00
67101;DHT22;54019;61.746;16.106;2023-04-06T08:24:43;19.70;23.00
67101;DHT22;54019;61.746;16.106;2023-04-06T08:27:08;19.70;23.30
67101;DHT22;54019;61.746;16.106;2023-04-06T08:29:36;19.70;23.00
67101;DHT22;54019;61.746;16.106;2023-04-06T08:32:01;19.60;23.00
67101;DHT22;54019;61.746;16.106;2023-04-06T08:34:27;19.70;23.10
67101;DHT22;54019;61.746;16.106;2023-04-06T08:36:53;19.70;22.90
67101;DHT22;54019;61.746;16.106;2023-04-06T08:39:19;19.70;23.00
67101;DHT22;54019;61.746;16.106;2023-04-06T08:41:44;19.70;22.90
67101;DHT22;54019;61.746;16.106;2023-04-06T08:44:12;19.80;22.70
67101;DHT22;54019;61.746;16.106;2023-04-06T08:46:39;19.80;22.60
67101;DHT22;54019;61.746;16.106;2023-04-06T08:49:04;19.90;22.60
67101;DHT22;54019;61.746;16.106;2023-04-06T08:51:30;19.90;22.60
67101;DHT22;54019;61.746;16.106;2023-04-06T08:53:57;19.90;22.50
67101;DHT22;54019;61.746;16.106;2023-04-06T08:56:24;19.90;22.50
67101;DHT22;54019;61.746;16.106;2023-04-06T08:58:51;19.90;22.50
67101;DHT22;54019;61.746;16.106;2023-04-06T09:01:21;19.90;22.50
67101;DHT22;54019;61.746;16.106;2023-04-06T09:03:49;19.80;22.60
67101;DHT22;54019;61.746;16.106;2023-04-06T09:06:15;19.80;22.40
67101;DHT22;54019;61.746;16.106;2023-04-06T09:08:41;19.80;22.40
67101;DHT22;54019;61.746;16.106;2023-04-06T09:11:07;19.80;22.40
67101;DHT22;54019;61.746;16.106;2023-04-06T09:13:45;19.80;22.50
67101;DHT22;54019;61.746;16.106;2023-04-06T09:16:11;19.80;22.50
67101;DHT22;54019;61.746;16.106;2023-04-06T09:18:36;19.80;22.50
67101;DHT22;54019;61.746;16.106;2023-04-06T09:21:05;19.80;22.30
67101;DHT22;54019;61.746;16.106;2023-04-06T09:23:31;19.80;22.40
67101;DHT22;54019;61.746;16.106;2023-04-06T09:26:09;19.80;22.50
67101;DHT22;54019;61.746;16.106;2023-04-06T09:28:45;19.80;22.40
67101;DHT22;54019;61.746;16.106;2023-04-06T09:31:11;19.70;22.50
67101;DHT22;54019;61.746;16.106;2023-04-06T09:33:38;19.70;22.50
67101;DHT22;54019;61.746;16.106;2023-04-06T09:36:06;19.70;22.50
67101;DHT22;54019;61.746;16.106;2023-04-06T09:38:32;19.70;22.50
67101;DHT22;54019;61.746;16.106;2023-04-06T09:40:58;19.70;22.50
67101;DHT22;54019;61.746;16.106;2023-04-06T09:43:24;19.70;22.50
67101;DHT22;54019;61.746;16.106;2023-04-06T09:45:50;19.70;22.40
67101;DHT22;54019;61.746;16.106;2023-04-06T09:48:16;19.70;22.40
67101;DHT22;54019;61.746;16.106;2023-04-06T09:50:42;19.70;22.40
67101;DHT22;54019;61.746;16.106;2023-04-06T09:53:10;19.70;22.50
67101;DHT22;54019;61.746;16.106;2023-04-06T09:55:40;19.70;22.30
67101;DHT22;54019;61.746;16.106;2023-04-06T09:58:09;19.70;22.30
67101;DHT22;54019;61.746;16.106;2023-04-06T10:00:44;19.80;22.40
67101;DHT22;54019;61.746;16.106;2023-04-06T10:03:14;19.80;22.60
67101;DHT22;54019;61.746;16.106;2023-04-06T10:05:49;19.80;22.40
67101;DHT22;54019;61.746;16.106;2023-04-06T10:08:19;19.80;22.60
67101;DHT22;54019;61.746;16.106;2023-04-06T10:10:46;19.80;22.80
67101;DHT22;54019;61.746;16.106;2023-04-06T10:13:12;19.80;23.00
67101;DHT22;54019;61.746;16.106;2023-04-06T10:15:38;19.80;24.00
67101;DHT22;54019;61.746;16.106;2023-04-06T10:18:05;19.80;23.10
67101;DHT22;54019;61.746;16.106;2023-04-06T10:20:38;19.80;23.10
67101;DHT22;54019;61.746;16.106;2023-04-06T10:23:08;19.80;22.90
67101;DHT22;54019;61.746;16.106;2023-04-06T10:25:35;19.80;22.80
67101;DHT22;54019;61.746;16.106;2023-04-06T10:28:02;19.80;23.10
67101;DHT22;54019;61.746;16.106;2023-04-06T10:30:30;19.80;23.00
67101;DHT22;54019;61.746;16.106;2023-04-06T10:32:57;19.80;23.20
67101;DHT22;54019;61.746;16.106;2023-04-06T10:35:23;19.80;23.00
67101;DHT22;54019;61.746;16.106;2023-04-06T10:38:02;19.90;23.10
67101;DHT22;54019;61.746;16.106;2023-04-06T10:40:28;19.90;23.00
67101;DHT22;54019;61.746;16.106;2023-04-06T10:43:06;19.90;23.00
67101;DHT22;54019;61.746;16.106;2023-04-06T10:45:32;20.00;22.80
67101;DHT22;54019;61.746;16.106;2023-04-06T10:47:58;20.10;22.70
67101;DHT22;54019;61.746;16.106;2023-04-06T10:50:23;20.10;22.20
67101;DHT22;54019;61.746;16.106;2023-04-06T10:52:59;20.10;21.90
67101;DHT22;54019;61.746;16.106;2023-04-06T10:55:25;20.10;21.90
67101;DHT22;54019;61.746;16.106;2023-04-06T10:57:51;20.20;22.80
67101;DHT22;54019;61.746;16.106;2023-04-06T11:00:20;20.20;22.00
67101;DHT22;54019;61.746;16.106;2023-04-06T11:02:45;20.20;21.80
67101;DHT22;54019;61.746;16.106;2023-04-06T11:05:12;20.20;21.70
67101;DHT22;54019;61.746;16.106;2023-04-06T11:07:39;20.20;22.50
67101;DHT22;54019;61.746;16.106;2023-04-06T11:10:05;20.20;21.90
67101;DHT22;54019;61.746;16.106;2023-04-06T11:12:31;20.20;23.10
67101;DHT22;54019;61.746;16.106;2023-04-06T11:14:58;20.20;29.70
67101;DHT22;54019;61.746;16.106;2023-04-06T11:17:29;20.30;33.90
67101;DHT22;54019;61.746;16.106;2023-04-06T11:19:55;20.30;34.00
67101;DHT22;54019;61.746;16.106;2023-04-06T11:22:21;20.30;29.60
67101;DHT22;54019;61.746;16.106;2023-04-06T11:24:47;20.30;28.50
67101;DHT22;54019;61.746;16.106;2023-04-06T11:27:13;20.30;29.10
67101;DHT22;54019;61.746;16.106;2023-04-06T11:29:39;20.40;31.00
67101;DHT22;54019;61.746;16.106;2023-04-06T11:32:05;20.40;33.90
67101;DHT22;54019;61.746;16.106;2023-04-06T11:34:33;20.40;33.50
67101;DHT22;54019;61.746;16.106;2023-04-06T11:37:01;20.30;37.40
67101;DHT22;54019;61.746;16.106;2023-04-06T11:39:28;20.40;31.40
67101;DHT22;54019;61.746;16.106;2023-04-06T11:41:57;20.40;29.40
67101;DHT22;54019;61.746;16.106;2023-04-06T11:44:31;20.40;28.70
67101;DHT22;54019;61.746;16.106;2023-04-06T11:46:57;20.40;27.80
67101;DHT22;54019;61.746;16.106;2023-04-06T11:49:26;20.40;27.90
67101;DHT22;54019;61.746;16.106;2023-04-06T11:51:54;20.50;28.10
67101;DHT22;54019;61.746;16.106;2023-04-06T11:54:30;20.40;27.50
67101;DHT22;54019;61.746;16.106;2023-04-06T11:56:55;20.40;27.90
67101;DHT22;54019;61.746;16.106;2023-04-06T11:59:21;20.30;29.50
67101;DHT22;54019;61.746;16.106;2023-04-06T12:01:47;20.20;29.70
67101;DHT22;54019;61.746;16.106;2023-04-06T12:04:13;20.20;29.10
67101;DHT22;54019;61.746;16.106;2023-04-06T12:06:39;20.10;28.10
67101;DHT22;54019;61.746;16.106;2023-04-06T12:09:06;20.10;28.10
67101;DHT22;54019;61.746;16.106;2023-04-06T12:11:32;20.10;28.10
67101;DHT22;54019;61.746;16.106;2023-04-06T12:13:57;20.10;28.50
67101;DHT22;54019;61.746;16.106;2023-04-06T12:16:23;20.10;28.30
67101;DHT22;54019;61.746;16.106;2023-04-06T12:18:49;20.10;27.90
67101;DHT22;54019;61.746;16.106;2023-04-06T12:21:16;20.10;27.90
67101;DHT22;54019;61.746;16.106;2023-04-06T12:23:42;20.10;27.80
67101;DHT22;54019;61.746;16.106;2023-04-06T12:26:09;20.10;28.10
67101;DHT22;54019;61.746;16.106;2023-04-06T12:28:35;20.00;27.50
67101;DHT22;54019;61.746;16.106;2023-04-06T12:31:00;20.00;28.20
67101;DHT22;54019;61.746;16.106;2023-04-06T12:33:26;20.00;28.00
67101;DHT22;54019;61.746;16.106;2023-04-06T12:35:52;20.00;28.00
67101;DHT22;54019;61.746;16.106;2023-04-06T12:38:18;20.00;28.00
67101;DHT22;54019;61.746;16.106;2023-04-06T12:40:44;20.00;27.70
67101;DHT22;54019;61.746;16.106;2023-04-06T12:43:11;20.00;29.00
67101;DHT22;54019;61.746;16.106;2023-04-06T12:45:36;20.00;26.10
67101;DHT22;54019;61.746;16.106;2023-04-06T12:48:02;19.90;25.50
67101;DHT22;54019;61.746;16.106;2023-04-06T12:50:28;19.80;24.40
67101;DHT22;54019;61.746;16.106;2023-04-06T12:52:54;19.80;23.70
67101;DHT22;54019;61.746;16.106;2023-04-06T12:55:20;19.70;23.20
67101;DHT22;54019;61.746;16.106;2023-04-06T12:57:45;19.60;23.00
67101;DHT22;54019;61.746;16.106;2023-04-06T13:00:14;19.60;22.60
67101;DHT22;54019;61.746;16.106;2023-04-06T13:02:40;19.60;22.40
67101;DHT22;54019;61.746;16.106;2023-04-06T13:05:06;19.50;22.00
67101;DHT22;54019;61.746;16.106;2023-04-06T13:07:32;19.40;21.90
67101;DHT22;54019;61.746;16.106;2023-04-06T13:09:58;19.40;21.70
67101;DHT22;54019;61.746;16.106;2023-04-06T13:12:23;19.40;21.60
67101;DHT22;54019;61.746;16.106;2023-04-06T13:14:49;19.30;21.50
67101;DHT22;54019;61.746;16.106;2023-04-06T13:17:16;19.30;21.60
67101;DHT22;54019;61.746;16.106;2023-04-06T13:19:42;19.30;21.50
67101;DHT22;54019;61.746;16.106;2023-04-06T13:22:08;19.30;21.60
67101;DHT22;54019;61.746;16.106;2023-04-06T13:24:34;19.30;21.60
67101;DHT22;54019;61.746;16.106;2023-04-06T13:26:59;19.20;21.50
67101;DHT22;54019;61.746;16.106;2023-04-06T13:29:25;19.10;22.20
67101;DHT22;54019;61.746;16.106;2023-04-06T13:31:51;19.10;21.40
67101;DHT22;54019;61.746;16.106;2023-04-06T13:34:18;19.00;21.30
67101;DHT22;54019;61.746;16.106;2023-04-06T13:36:44;19.00;21.20
67101;DHT22;54019;61.746;16.106;2023-04-06T13:39:10;19.00;21.20
67101;DHT22;54019;61.746;16.106;2023-04-06T13:41:35;19.00;21.20
67101;DHT22;54019;61.746;16.106;2023-04-06T13:44:01;18.90;21.10
67101;DHT22;54019;61.746;16.106;2023-04-06T13:46:27;18.90;21.10
67101;DHT22;54019;61.746;16.106;2023-04-06T13:48:53;18.80;20.50
67101;DHT22;54019;61.746;16.106;2023-04-06T13:51:20;18.70;21.60
67101;DHT22;54019;61.746;16.106;2023-04-06T13:53:46;18.70;21.40
67101;DHT22;54019;61.746;16.106;2023-04-06T13:56:12;18.70;21.80
67101;DHT22;54019;61.746;16.106;2023-04-06T13:58:37;18.70;21.90
67101;DHT22;54019;61.746;16.106;2023-04-06T14:01:04;18.70;21.90
67101;DHT22;54019;61.746;16.106;2023-04-06T14:03:30;18.70;21.90
67101;DHT22;54019;61.746;16.106;2023-04-06T14:05:56;18.80;22.00
67101;DHT22;54019;61.746;16.106;2023-04-06T14:08:23;18.80;22.00
67101;DHT22;54019;61.746;16.106;2023-04-06T14:10:49;18.70;22.20
67101;DHT22;54019;61.746;16.106;2023-04-06T14:13:15;18.80;22.30
67101;DHT22;54019;61.746;16.106;2023-04-06T14:15:40;18.80;22.40
67101;DHT22;54019;61.746;16.106;2023-04-06T14:18:08;18.90;22.30
67101;DHT22;54019;61.746;16.106;2023-04-06T14:20:34;18.90;21.90
67101;DHT22;54019;61.746;16.106;2023-04-06T14:23:00;19.00;21.80
67101;DHT22;54019;61.746;16.106;2023-04-06T14:25:27;19.10;22.40
67101;DHT22;54019;61.746;16.106;2023-04-06T14:27:53;19.20;22.50
67101;DHT22;54019;61.746;16.106;2023-04-06T14:30:19;19.20;22.30
67101;DHT22;54019;61.746;16.106;2023-04-06T14:32:45;19.30;23.40
67101;DHT22;54019;61.746;16.106;2023-04-06T14:35:11;19.40;22.10
67101;DHT22;54019;61.746;16.106;2023-04-06T14:37:37;19.40;22.40
67101;DHT22;54019;61.746;16.106;2023-04-06T14:40:03;19.40;22.40
67101;DHT22;54019;61.746;16.106;2023-04-06T14:42:30;19.40;22.90
67101;DHT22;54019;61.746;16.106;2023-04-06T14:44:56;19.50;23.20
67101;DHT22;54019;61.746;16.106;2023-04-06T14:47:21;19.50;24.10
67101;DHT22;54019;61.746;16.106;2023-04-06T14:49:48;19.70;24.80
67101;DHT22;54019;61.746;16.106;2023-04-06T14:52:14;19.70;24.10
67101;DHT22;54019;61.746;16.106;2023-04-06T14:54:40;19.80;24.70
67101;DHT22;54019;61.746;16.106;2023-04-06T14:57:06;19.70;25.00
67101;DHT22;54019;61.746;16.106;2023-04-06T14:59:33;19.80;26.50
67101;DHT22;54019;61.746;16.106;2023-04-06T15:01:59;19.90;28.30
67101;DHT22;54019;61.746;16.106;2023-04-06T15:04:24;20.00;28.00
67101;DHT22;54019;61.746;16.106;2023-04-06T15:06:50;20.10;27.80
67101;DHT22;54019;61.746;16.106;2023-04-06T15:09:16;20.10;27.80